sensor_id;sensor_type;location;lat;lon;timestamp;pressure;altitude;pressure_sealevel;temperature;humidity
14594;BME280;7383;52.354;9.756;2022-11-21T01:22:25;65156.72;;;-143.30;100.00
14594;BME280;7383;52.354;9.756;2022-11-21T02:09:04;65156.72;;;-143.30;100.00
14594;BME280;7383;52.354;9.756;2022-11-21T02:11:39;65156.72;;;-143.30;100.00
14594;BME280;7383;52.354;9.756;2022-11-21T02:14:08;65156.72;;;-143.30;100.00
14594;BME280;7383;52.354;9.756;2022-11-21T02:16:35;65156.72;;;-143.30;100.00
14594;BME280;7383;52.354;9.756;2022-11-21T02:35:14;65156.72;;;-143.30;100.00
14594;BME280;7383;52.354;9.756;2022-11-21T02:37:42;65156.72;;;-143.30;100.00
14594;BME280;7383;52.354;9.756;2022-11-21T02:40:13;65156.72;;;-143.30;100.00
14594;BME280;7383;52.354;9.756;2022-11-21T02:42:44;65156.72;;;-143.30;100.00
14594;BME280;7383;52.354;9.756;2022-11-21T02:45:17;65156.72;;;-143.30;100.00
14594;BME280;7383;52.354;9.756;2022-11-21T02:47:46;65156.72;;;-143.30;100.00
14594;BME280;7383;52.354;9.756;2022-11-21T02:50:19;65156.72;;;-143.30;100.00
14594;BME280;7383;52.354;9.756;2022-11-21T02:52:49;65156.72;;;-143.30;100.00
14594;BME280;7383;52.354;9.756;2022-11-21T02:55:16;65156.72;;;-143.30;100.00
14594;BME280;7383;52.354;9.756;2022-11-21T02:57:44;65156.72;;;-143.30;100.00
14594;BME280;7383;52.354;9.756;2022-11-21T03:00:14;65156.72;;;-143.30;100.00
14594;BME280;7383;52.354;9.756;2022-11-21T03:02:43;65156.72;;;-143.30;100.00
14594;BME280;7383;52.354;9.756;2022-11-21T03:05:13;65156.72;;;-143.30;100.00
14594;BME280;7383;52.354;9.756;2022-11-21T03:07:41;65156.72;;;-143.30;100.00
14594;BME280;7383;52.354;9.756;2022-11-21T03:10:09;65156.72;;;-143.30;100.00
14594;BME280;7383;52.354;9.756;2022-11-21T03:12:35;65156.72;;;-143.30;100.00
14594;BME280;7383;52.354;9.756;2022-11-21T03:15:03;65156.72;;;-143.30;100.00
14594;BME280;7383;52.354;9.756;2022-11-21T03:17:29;65156.72;;;-143.30;100.00
14594;BME280;7383;52.354;9.756;2022-11-21T03:19:56;65156.72;;;-143.30;100.00
14594;BME280;7383;52.354;9.756;2022-11-21T03:22:23;65156.72;;;-143.30;100.00
14594;BME280;7383;52.354;9.756;2022-11-21T03:24:51;65156.72;;;-143.30;100.00
14594;BME280;7383;52.354;9.756;2022-11-21T03:27:18;65156.72;;;-143.30;100.00
14594;BME280;7383;52.354;9.756;2022-11-21T03:29:44;65156.72;;;-143.30;100.00
14594;BME280;7383;52.354;9.756;2022-11-21T03:32:11;65156.72;;;-143.30;100.00
14594;BME280;7383;52.354;9.756;2022-11-21T03:34:38;65156.72;;;-143.30;100.00
14594;BME280;7383;52.354;9.756;2022-11-21T03:37:04;65156.72;;;-143.30;100.00
14594;BME280;7383;52.354;9.756;2022-11-21T03:39:31;65156.72;;;-143.30;100.00
14594;BME280;7383;52.354;9.756;2022-11-21T03:41:59;65156.72;;;-143.30;100.00
14594;BME280;7383;52.354;9.756;2022-11-21T03:44:26;65156.72;;;-143.30;100.00
14594;BME280;7383;52.354;9.756;2022-11-21T03:46:53;65156.72;;;-143.30;100.00
14594;BME280;7383;52.354;9.756;2022-11-21T03:49:19;65156.72;;;-143.30;100.00
14594;BME280;7383;52.354;9.756;2022-11-21T03:51:46;65156.72;;;-143.30;100.00
14594;BME280;7383;52.354;9.756;2022-11-21T03:54:13;65156.72;;;-143.30;100.00
14594;BME280;7383;52.354;9.756;2022-11-21T03:56:39;65156.72;;;-143.30;100.00
14594;BME280;7383;52.354;9.756;2022-11-21T03:59:07;65156.72;;;-143.30;100.00
14594;BME280;7383;52.354;9.756;2022-11-21T04:01:34;65156.72;;;-143.30;100.00
14594;BME280;7383;52.354;9.756;2022-11-21T04:04:01;65156.72;;;-143.30;100.00
14594;BME280;7383;52.354;9.756;2022-11-21T04:06:27;65156.72;;;-143.30;100.00
14594;BME280;7383;52.354;9.756;2022-11-21T04:08:55;65156.72;;;-143.30;100.00
14594;BME280;7383;52.354;9.756;2022-11-21T04:11:25;65156.72;;;-143.30;100.00
14594;BME280;7383;52.354;9.756;2022-11-21T04:13:51;65156.72;;;-143.30;100.00
14594;BME280;7383;52.354;9.756;2022-11-21T04:16:20;65156.72;;;-143.30;100.00
14594;BME280;7383;52.354;9.756;2022-11-21T04:18:48;65156.72;;;-143.30;100.00
14594;BME280;7383;52.354;9.756;2022-11-21T04:21:14;65156.72;;;-143.30;100.00
14594;BME280;7383;52.354;9.756;2022-11-21T04:23:43;65156.72;;;-143.30;100.00
14594;BME280;7383;52.354;9.756;2022-11-21T04:26:09;65156.72;;;-143.30;100.00
14594;BME280;7383;52.354;9.756;2022-11-21T04:28:36;65156.72;;;-143.30;100.00
14594;BME280;7383;52.354;9.756;2022-11-21T04:31:04;65156.72;;;-143.30;100.00
14594;BME280;7383;52.354;9.756;2022-11-21T04:33:32;65156.72;;;-143.30;100.00
14594;BME280;7383;52.354;9.756;2022-11-21T04:36:04;65156.72;;;-143.30;100.00
14594;BME280;7383;52.354;9.756;2022-11-21T04:38:32;65156.72;;;-143.30;100.00
14594;BME280;7383;52.354;9.756;2022-11-21T04:40:58;65156.72;;;-143.30;100.00
14594;BME280;7383;52.354;9.756;2022-11-21T04:43:29;65156.72;;;-143.30;100.00
14594;BME280;7383;52.354;9.756;2022-11-21T04:45:56;65156.72;;;-143.30;100.00
14594;BME280;7383;52.354;9.756;2022-11-21T04:48:27;65156.72;;;-143.30;100.00
14594;BME280;7383;52.354;9.756;2022-11-21T04:51:02;65156.72;;;-143.30;100.00
14594;BME280;7383;52.354;9.756;2022-11-21T04:53:29;65156.72;;;-143.30;100.00
14594;BME280;7383;52.354;9.756;2022-11-21T04:55:56;65156.72;;;-143.30;100.00
14594;BME280;7383;52.354;9.756;2022-11-21T04:58:25;65156.72;;;-143.30;100.00
14594;BME280;7383;52.354;9.756;2022-11-21T05:00:51;65156.72;;;-143.30;100.00
14594;BME280;7383;52.354;9.756;2022-11-21T05:03:19;65156.72;;;-143.30;100.00
14594;BME280;7383;52.354;9.756;2022-11-21T05:05:57;65156.72;;;-143.30;100.00
14594;BME280;7383;52.354;9.756;2022-11-21T05:08:28;65156.72;;;-143.30;100.00
14594;BME280;7383;52.354;9.756;2022-11-21T05:10:59;65156.72;;;-143.30;100.00
14594;BME280;7383;52.354;9.756;2022-11-21T05:13:43;65156.72;;;-143.30;100.00
14594;BME280;7383;52.354;9.756;2022-11-21T05:16:10;65156.72;;;-143.30;100.00
14594;BME280;7383;52.354;9.756;2022-11-21T05:18:36;65156.72;;;-143.30;100.00
14594;BME280;7383;52.354;9.756;2022-11-21T05:21:03;65156.72;;;-143.30;100.00
14594;BME280;7383;52.354;9.756;2022-11-21T05:23:31;65156.72;;;-143.30;100.00
14594;BME280;7383;52.354;9.756;2022-11-21T05:25:58;65156.72;;;-143.30;100.00
14594;BME280;7383;52.354;9.756;2022-11-21T05:28:25;65156.72;;;-143.30;100.00
14594;BME280;7383;52.354;9.756;2022-11-21T05:30:52;65156.72;;;-143.30;100.00
14594;BME280;7383;52.354;9.756;2022-11-21T05:33:18;65156.72;;;-143.30;100.00
14594;BME280;7383;52.354;9.756;2022-11-21T05:35:48;65156.72;;;-143.30;100.00
14594;BME280;7383;52.354;9.756;2022-11-21T05:38:15;65156.72;;;-143.30;100.00
14594;BME280;7383;52.354;9.756;2022-11-21T05:40:44;65156.72;;;-143.30;100.00
14594;BME280;7383;52.354;9.756;2022-11-21T05:43:11;65156.72;;;-143.30;100.00
14594;BME280;7383;52.354;9.756;2022-11-21T05:45:55;65156.72;;;-143.30;100.00
14594;BME280;7383;52.354;9.756;2022-11-21T05:48:22;65156.72;;;-143.30;100.00
14594;BME280;7383;52.354;9.756;2022-11-21T05:50:48;65156.72;;;-143.30;100.00
14594;BME280;7383;52.354;9.756;2022-11-21T05:53:15;65156.72;;;-143.30;100.00
14594;BME280;7383;52.354;9.756;2022-11-21T05:55:44;65156.72;;;-143.30;100.00
14594;BME280;7383;52.354;9.756;2022-11-21T05:58:10;65156.72;;;-143.30;100.00
14594;BME280;7383;52.354;9.756;2022-11-21T06:00:37;65156.72;;;-143.30;100.00
14594;BME280;7383;52.354;9.756;2022-11-21T06:03:04;65156.72;;;-143.30;100.00
14594;BME280;7383;52.354;9.756;2022-11-21T06:05:48;65156.72;;;-143.30;100.00
14594;BME280;7383;52.354;9.756;2022-11-21T06:08:15;65156.72;;;-143.30;100.00
14594;BME280;7383;52.354;9.756;2022-11-21T06:10:44;65156.72;;;-143.30;100.00
14594;BME280;7383;52.354;9.756;2022-11-21T06:13:10;65156.72;;;-143.30;100.00
14594;BME280;7383;52.354;9.756;2022-11-21T06:15:49;65156.72;;;-143.30;100.00
14594;BME280;7383;52.354;9.756;2022-11-21T06:18:30;65156.72;;;-143.30;100.00
14594;BME280;7383;52.354;9.756;2022-11-21T06:21:13;65156.72;;;-143.30;100.00
14594;BME280;7383;52.354;9.756;2022-11-21T06:23:48;65156.72;;;-143.30;100.00
14594;BME280;7383;52.354;9.756;2022-11-21T06:26:18;65156.72;;;-143.30;100.00
14594;BME280;7383;52.354;9.756;2022-11-21T06:28:45;65156.72;;;-143.30;100.00
14594;BME280;7383;52.354;9.756;2022-11-21T06:31:17;65156.72;;;-143.30;100.00
14594;BME280;7383;52.354;9.756;2022-11-21T06:33:50;65156.72;;;-143.30;100.00
14594;BME280;7383;52.354;9.756;2022-11-21T06:36:17;65156.72;;;-143.30;100.00
14594;BME280;7383;52.354;9.756;2022-11-21T06:38:44;65156.72;;;-143.30;100.00
14594;BME280;7383;52.354;9.756;2022-11-21T06:41:13;65156.72;;;-143.30;100.00
14594;BME280;7383;52.354;9.756;2022-11-21T06:43:42;65156.72;;;-143.30;100.00
14594;BME280;7383;52.354;9.756;2022-11-21T06:46:09;65156.72;;;-143.30;100.00
14594;BME280;7383;52.354;9.756;2022-11-21T06:48:36;65156.72;;;-143.30;100.00
14594;BME280;7383;52.354;9.756;2022-11-21T06:51:04;65156.72;;;-143.30;100.00
14594;BME280;7383;52.354;9.756;2022-11-21T06:53:32;65156.72;;;-143.30;100.00
14594;BME280;7383;52.354;9.756;2022-11-21T06:55:59;65156.72;;;-143.30;100.00
14594;BME280;7383;52.354;9.756;2022-11-21T06:58:26;65156.72;;;-143.30;100.00
14594;BME280;7383;52.354;9.756;2022-11-21T07:01:28;65156.72;;;-143.30;100.00
14594;BME280;7383;52.354;9.756;2022-11-21T07:04:06;65156.72;;;-143.30;100.00
14594;BME280;7383;52.354;9.756;2022-11-21T07:06:39;65156.72;;;-143.30;100.00
14594;BME280;7383;52.354;9.756;2022-11-21T07:09:05;65156.72;;;-143.30;100.00
14594;BME280;7383;52.354;9.756;2022-11-21T07:11:34;65156.72;;;-143.30;100.00
14594;BME280;7383;52.354;9.756;2022-11-21T07:14:05;65156.72;;;-143.30;100.00
14594;BME280;7383;52.354;9.756;2022-11-21T07:19:07;65156.72;;;-143.30;100.00
14594;BME280;7383;52.354;9.756;2022-11-21T07:21:34;65156.72;;;-143.30;100.00
14594;BME280;7383;52.354;9.756;2022-11-21T07:24:00;65156.72;;;-143.30;100.00
14594;BME280;7383;52.354;9.756;2022-11-21T07:26:27;65156.72;;;-143.30;100.00
14594;BME280;7383;52.354;9.756;2022-11-21T07:29:14;65156.72;;;-143.30;100.00
14594;BME280;7383;52.354;9.756;2022-11-21T07:31:41;65156.72;;;-143.30;100.00
14594;BME280;7383;52.354;9.756;2022-11-21T07:34:12;65156.72;;;-143.30;100.00
14594;BME280;7383;52.354;9.756;2022-11-21T07:36:38;65156.72;;;-143.30;100.00
14594;BME280;7383;52.354;9.756;2022-11-21T07:39:05;65156.72;;;-143.30;100.00
14594;BME280;7383;52.354;9.756;2022-11-21T07:41:38;65156.72;;;-143.30;100.00
14594;BME280;7383;52.354;9.756;2022-11-21T07:44:04;65156.72;;;-143.30;100.00
14594;BME280;7383;52.354;9.756;2022-11-21T07:46:31;65156.72;;;-143.30;100.00
14594;BME280;7383;52.354;9.756;2022-11-21T07:48:59;65156.72;;;-143.30;100.00
14594;BME280;7383;52.354;9.756;2022-11-21T07:51:29;65156.72;;;-143.30;100.00
14594;BME280;7383;52.354;9.756;2022-11-21T07:53:55;65156.72;;;-143.30;100.00
14594;BME280;7383;52.354;9.756;2022-11-21T07:56:22;65156.72;;;-143.30;100.00
14594;BME280;7383;52.354;9.756;2022-11-21T07:59:19;65156.72;;;-143.30;100.00
14594;BME280;7383;52.354;9.756;2022-11-21T08:02:03;65156.72;;;-143.30;100.00
14594;BME280;7383;52.354;9.756;2022-11-21T08:06:59;65156.72;;;-143.30;100.00
14594;BME280;7383;52.354;9.756;2022-11-21T08:11:44;65156.72;;;-143.30;100.00
14594;BME280;7383;52.354;9.756;2022-11-21T08:14:12;65156.72;;;-143.30;100.00
14594;BME280;7383;52.354;9.756;2022-11-21T08:16:47;65156.72;;;-143.30;100.00
14594;BME280;7383;52.354;9.756;2022-11-21T08:19:30;65156.72;;;-143.30;100.00
14594;BME280;7383;52.354;9.756;2022-11-21T08:21:57;65156.72;;;-143.30;100.00
14594;BME280;7383;52.354;9.756;2022-11-21T08:24:24;65156.72;;;-143.30;100.00
14594;BME280;7383;52.354;9.756;2022-11-21T08:26:52;65156.72;;;-143.30;100.00
14594;BME280;7383;52.354;9.756;2022-11-21T08:29:28;65156.72;;;-143.30;100.00
14594;BME280;7383;52.354;9.756;2022-11-21T08:31:56;65156.72;;;-143.30;100.00
14594;BME280;7383;52.354;9.756;2022-11-21T08:34:23;65156.72;;;-143.30;100.00
14594;BME280;7383;52.354;9.756;2022-11-21T08:36:50;65156.72;;;-143.30;100.00
14594;BME280;7383;52.354;9.756;2022-11-21T08:39:17;65156.72;;;-143.30;100.00
14594;BME280;7383;52.354;9.756;2022-11-21T08:41:44;65156.72;;;-143.30;100.00
14594;BME280;7383;52.354;9.756;2022-11-21T08:44:32;65156.72;;;-143.30;100.00
14594;BME280;7383;52.354;9.756;2022-11-21T08:47:00;65156.72;;;-143.30;100.00
14594;BME280;7383;52.354;9.756;2022-11-21T08:49:27;65156.72;;;-143.30;100.00
14594;BME280;7383;52.354;9.756;2022-11-21T08:51:55;65156.72;;;-143.30;100.00
14594;BME280;7383;52.354;9.756;2022-11-21T08:54:22;65156.72;;;-143.30;100.00
14594;BME280;7383;52.354;9.756;2022-11-21T08:56:50;65156.72;;;-143.30;100.00
14594;BME280;7383;52.354;9.756;2022-11-21T08:59:17;65156.72;;;-143.30;100.00
14594;BME280;7383;52.354;9.756;2022-11-21T09:01:45;65156.72;;;-143.30;100.00
14594;BME280;7383;52.354;9.756;2022-11-21T09:04:11;65156.72;;;-143.30;100.00
14594;BME280;7383;52.354;9.756;2022-11-21T09:06:38;65156.72;;;-143.30;100.00
14594;BME280;7383;52.354;9.756;2022-11-21T09:09:05;65156.72;;;-143.30;100.00
14594;BME280;7383;52.354;9.756;2022-11-21T09:11:32;65156.72;;;-143.30;100.00
14594;BME280;7383;52.354;9.756;2022-11-21T09:13:59;65156.72;;;-143.30;100.00
14594;BME280;7383;52.354;9.756;2022-11-21T09:16:45;65156.72;;;-143.30;100.00
14594;BME280;7383;52.354;9.756;2022-11-21T09:19:29;65156.72;;;-143.30;100.00
14594;BME280;7383;52.354;9.756;2022-11-21T09:21:55;65156.72;;;-143.30;100.00
14594;BME280;7383;52.354;9.756;2022-11-21T09:24:22;65156.72;;;-143.30;100.00
14594;BME280;7383;52.354;9.756;2022-11-21T09:26:48;65156.72;;;-143.30;100.00
14594;BME280;7383;52.354;9.756;2022-11-21T09:29:15;65156.72;;;-143.30;100.00
14594;BME280;7383;52.354;9.756;2022-11-21T09:31:46;65156.72;;;-143.30;100.00
14594;BME280;7383;52.354;9.756;2022-11-21T09:34:12;65156.72;;;-143.30;100.00
14594;BME280;7383;52.354;9.756;2022-11-21T09:36:39;65156.72;;;-143.30;100.00
14594;BME280;7383;52.354;9.756;2022-11-21T09:39:05;65156.72;;;-143.30;100.00
14594;BME280;7383;52.354;9.756;2022-11-21T09:41:40;65156.72;;;-143.30;100.00
14594;BME280;7383;52.354;9.756;2022-11-21T09:44:34;65156.72;;;-143.30;100.00
14594;BME280;7383;52.354;9.756;2022-11-21T09:47:19;65156.72;;;-143.30;100.00
14594;BME280;7383;52.354;9.756;2022-11-21T09:49:49;65156.72;;;-143.30;100.00
14594;BME280;7383;52.354;9.756;2022-11-21T09:52:20;65156.72;;;-143.30;100.00
14594;BME280;7383;52.354;9.756;2022-11-21T09:54:55;65156.72;;;-143.30;100.00
14594;BME280;7383;52.354;9.756;2022-11-21T09:57:24;65156.72;;;-143.30;100.00
14594;BME280;7383;52.354;9.756;2022-11-21T09:59:51;65156.72;;;-143.30;100.00
14594;BME280;7383;52.354;9.756;2022-11-21T10:02:22;65156.72;;;-143.30;100.00
14594;BME280;7383;52.354;9.756;2022-11-21T10:04:49;65156.72;;;-143.30;100.00
14594;BME280;7383;52.354;9.756;2022-11-21T10:07:21;65156.72;;;-143.30;100.00
14594;BME280;7383;52.354;9.756;2022-11-21T10:10:03;65156.72;;;-143.30;100.00
14594;BME280;7383;52.354;9.756;2022-11-21T10:12:41;65156.72;;;-143.30;100.00
14594;BME280;7383;52.354;9.756;2022-11-21T10:15:22;65156.72;;;-143.30;100.00
14594;BME280;7383;52.354;9.756;2022-11-21T10:18:02;65156.72;;;-143.30;100.00
14594;BME280;7383;52.354;9.756;2022-11-21T10:20:41;65156.72;;;-143.30;100.00
14594;BME280;7383;52.354;9.756;2022-11-21T10:23:33;65156.72;;;-143.30;100.00
14594;BME280;7383;52.354;9.756;2022-11-21T10:26:13;65156.72;;;-143.30;100.00
14594;BME280;7383;52.354;9.756;2022-11-21T10:28:46;65156.72;;;-143.30;100.00
14594;BME280;7383;52.354;9.756;2022-11-21T10:31:17;65156.72;;;-143.30;100.00
14594;BME280;7383;52.354;9.756;2022-11-21T10:33:47;65156.72;;;-143.30;100.00
14594;BME280;7383;52.354;9.756;2022-11-21T10:36:25;65156.72;;;-143.30;100.00
14594;BME280;7383;52.354;9.756;2022-11-21T10:38:58;65156.72;;;-143.30;100.00
14594;BME280;7383;52.354;9.756;2022-11-21T10:41:38;65156.72;;;-143.30;100.00
14594;BME280;7383;52.354;9.756;2022-11-21T10:44:13;65156.72;;;-143.30;100.00
14594;BME280;7383;52.354;9.756;2022-11-21T10:47:12;65156.72;;;-143.30;100.00
14594;BME280;7383;52.354;9.756;2022-11-21T10:49:41;65156.72;;;-143.30;100.00
14594;BME280;7383;52.354;9.756;2022-11-21T10:52:11;65156.72;;;-143.30;100.00
14594;BME280;7383;52.354;9.756;2022-11-21T10:55:01;65156.72;;;-143.30;100.00
14594;BME280;7383;52.354;9.756;2022-11-21T10:57:31;65156.72;;;-143.30;100.00
14594;BME280;7383;52.354;9.756;2022-11-21T11:00:00;65156.72;;;-143.30;100.00
14594;BME280;7383;52.354;9.756;2022-11-21T11:02:28;65156.72;;;-143.30;100.00
14594;BME280;7383;52.354;9.756;2022-11-21T11:05:20;65156.72;;;-143.30;100.00
14594;BME280;7383;52.354;9.756;2022-11-21T11:07:59;65156.72;;;-143.30;100.00
14594;BME280;7383;52.354;9.756;2022-11-21T11:10:27;65156.72;;;-143.30;100.00
14594;BME280;7383;52.354;9.756;2022-11-21T11:12:54;65156.72;;;-143.30;100.00
14594;BME280;7383;52.354;9.756;2022-11-21T11:15:52;65156.72;;;-143.30;100.00
14594;BME280;7383;52.354;9.756;2022-11-21T11:18:20;65156.72;;;-143.30;100.00
14594;BME280;7383;52.354;9.756;2022-11-21T11:20:49;65156.72;;;-143.30;100.00
14594;BME280;7383;52.354;9.756;2022-11-21T11:23:23;65156.72;;;-143.30;100.00
14594;BME280;7383;52.354;9.756;2022-11-21T11:25:52;65156.72;;;-143.30;100.00
14594;BME280;7383;52.354;9.756;2022-11-21T11:28:19;65156.72;;;-143.30;100.00
14594;BME280;7383;52.354;9.756;2022-11-21T11:30:48;65156.72;;;-143.30;100.00
14594;BME280;7383;52.354;9.756;2022-11-21T11:33:29;-12578.19;;;7.04;100.00
14594;BME280;7383;52.354;9.756;2022-11-21T11:36:11;-12580.81;;;7.19;100.00
14594;BME280;7383;52.354;9.756;2022-11-21T11:38:41;-12579.06;;;7.09;100.00
14594;BME280;7383;52.354;9.756;2022-11-21T11:41:16;-12573.28;;;6.76;100.00
14594;BME280;7383;52.354;9.756;2022-11-21T11:43:51;65156.72;;;-143.30;100.00
14594;BME280;7383;52.354;9.756;2022-11-21T11:46:44;65156.72;;;-143.30;100.00
14594;BME280;7383;52.354;9.756;2022-11-21T11:49:39;65156.72;;;-143.30;100.00
14594;BME280;7383;52.354;9.756;2022-11-21T11:52:24;65156.72;;;-143.30;100.00
14594;BME280;7383;52.354;9.756;2022-11-21T11:54:57;65156.72;;;-143.30;100.00
14594;BME280;7383;52.354;9.756;2022-11-21T11:57:26;-12606.78;;;8.69;100.00
14594;BME280;7383;52.354;9.756;2022-11-21T12:00:05;-12661.06;;;11.82;100.00
14594;BME280;7383;52.354;9.756;2022-11-21T12:02:44;-12701.69;;;14.18;100.00
14594;BME280;7383;52.354;9.756;2022-11-21T12:05:17;-12720.78;;;15.30;100.00
14594;BME280;7383;52.354;9.756;2022-11-21T12:07:52;-12736.19;;;16.19;100.00
14594;BME280;7383;52.354;9.756;2022-11-21T12:10:25;-12745.63;;;16.75;100.00
14594;BME280;7383;52.354;9.756;2022-11-21T12:12:57;-12740.97;;;16.47;100.00
14594;BME280;7383;52.354;9.756;2022-11-21T12:15:31;-12743.28;;;16.61;100.00
14594;BME280;7383;52.354;9.756;2022-11-21T12:18:24;-12751.25;;;17.07;100.00
14594;BME280;7383;52.354;9.756;2022-11-21T12:20:56;-12754.53;;;17.27;100.00
14594;BME280;7383;52.354;9.756;2022-11-21T12:23:29;-12766.53;;;17.97;100.00
14594;BME280;7383;52.354;9.756;2022-11-21T12:26:08;-12774.31;;;18.42;100.00
14594;BME280;7383;52.354;9.756;2022-11-21T12:28:48;-12777.66;;;18.62;100.00
14594;BME280;7383;52.354;9.756;2022-11-21T12:31:21;-12764.03;;;17.82;100.00
14594;BME280;7383;52.354;9.756;2022-11-21T12:33:57;-12749.97;;;17.00;100.00
14594;BME280;7383;52.354;9.756;2022-11-21T12:36:34;-12730.16;;;15.84;100.00
14594;BME280;7383;52.354;9.756;2022-11-21T12:39:17;-12722.25;;;15.38;100.00
14594;BME280;7383;52.354;9.756;2022-11-21T12:41:48;-12711.34;;;14.74;100.00
14594;BME280;7383;52.354;9.756;2022-11-21T12:44:50;-12690.31;;;13.52;100.00
14594;BME280;7383;52.354;9.756;2022-11-21T12:47:40;-12673.97;;;12.57;100.00
14594;BME280;7383;52.354;9.756;2022-11-21T12:50:28;-12673.44;;;12.54;100.00
14594;BME280;7383;52.354;9.756;2022-11-21T12:53:19;-12653.03;;;11.36;100.00
14594;BME280;7383;52.354;9.756;2022-11-21T12:56:12;-12646.66;;;10.99;100.00
14594;BME280;7383;52.354;9.756;2022-11-21T12:58:45;-12646.13;;;10.96;100.00
14594;BME280;7383;52.354;9.756;2022-11-21T13:01:26;-12644.03;;;10.84;100.00
14594;BME280;7383;52.354;9.756;2022-11-21T13:03:58;-12633.22;;;10.21;100.00
14594;BME280;7383;52.354;9.756;2022-11-21T13:06:28;-12619.66;;;9.43;100.00
14594;BME280;7383;52.354;9.756;2022-11-21T13:08:59;-12610.72;;;8.92;100.00
14594;BME280;7383;52.354;9.756;2022-11-21T13:11:36;-12603.81;;;8.52;100.00
14594;BME280;7383;52.354;9.756;2022-11-21T13:14:28;-12607.50;;;8.73;100.00
14594;BME280;7383;52.354;9.756;2022-11-21T13:17:08;-12607.56;;;8.73;100.00
14594;BME280;7383;52.354;9.756;2022-11-21T13:19:43;-12600.13;;;8.30;100.00
14594;BME280;7383;52.354;9.756;2022-11-21T13:22:51;-12597.22;;;8.14;100.00
14594;BME280;7383;52.354;9.756;2022-11-21T13:25:38;-12588.53;;;7.64;100.00
14594;BME280;7383;52.354;9.756;2022-11-21T13:28:29;-12583.03;;;7.32;100.00
14594;BME280;7383;52.354;9.756;2022-11-21T13:30:58;-12577.66;;;7.01;100.00
14594;BME280;7383;52.354;9.756;2022-11-21T13:33:46;-12571.16;;;6.64;100.00
14594;BME280;7383;52.354;9.756;2022-11-21T13:36:33;65156.72;;;-143.30;100.00
14594;BME280;7383;52.354;9.756;2022-11-21T13:39:25;65156.72;;;-143.30;100.00
14594;BME280;7383;52.354;9.756;2022-11-21T13:42:08;65156.72;;;-143.30;100.00
14594;BME280;7383;52.354;9.756;2022-11-21T13:44:53;65156.72;;;-143.30;100.00
14594;BME280;7383;52.354;9.756;2022-11-21T13:47:51;65156.72;;;-143.30;100.00
14594;BME280;7383;52.354;9.756;2022-11-21T13:50:47;65156.72;;;-143.30;100.00
14594;BME280;7383;52.354;9.756;2022-11-21T13:53:30;65156.72;;;-143.30;100.00
14594;BME280;7383;52.354;9.756;2022-11-21T13:56:03;65156.72;;;-143.30;100.00
14594;BME280;7383;52.354;9.756;2022-11-21T13:58:48;65156.72;;;-143.30;100.00
14594;BME280;7383;52.354;9.756;2022-11-21T14:01:33;65156.72;;;-143.30;100.00
14594;BME280;7383;52.354;9.756;2022-11-21T14:07:21;65156.72;;;-143.30;100.00
14594;BME280;7383;52.354;9.756;2022-11-21T14:09:50;65156.72;;;-143.30;100.00
14594;BME280;7383;52.354;9.756;2022-11-21T14:12:22;65156.72;;;-143.30;100.00
14594;BME280;7383;52.354;9.756;2022-11-21T14:14:52;65156.72;;;-143.30;100.00
14594;BME280;7383;52.354;9.756;2022-11-21T14:17:44;65156.72;;;-143.30;100.00
14594;BME280;7383;52.354;9.756;2022-11-21T14:20:18;65156.72;;;-143.30;100.00
14594;BME280;7383;52.354;9.756;2022-11-21T14:22:52;65156.72;;;-143.30;100.00
14594;BME280;7383;52.354;9.756;2022-11-21T14:25:21;65156.72;;;-143.30;100.00
14594;BME280;7383;52.354;9.756;2022-11-21T14:27:51;65156.72;;;-143.30;100.00
14594;BME280;7383;52.354;9.756;2022-11-21T14:30:30;65156.72;;;-143.30;100.00
14594;BME280;7383;52.354;9.756;2022-11-21T14:33:26;65156.72;;;-143.30;100.00
14594;BME280;7383;52.354;9.756;2022-11-21T14:35:56;65156.72;;;-143.30;100.00
14594;BME280;7383;52.354;9.756;2022-11-21T14:38:24;65156.72;;;-143.30;100.00
14594;BME280;7383;52.354;9.756;2022-11-21T14:41:17;65156.72;;;-143.30;100.00
14594;BME280;7383;52.354;9.756;2022-11-21T14:43:47;65156.72;;;-143.30;100.00
14594;BME280;7383;52.354;9.756;2022-11-21T14:46:13;65156.72;;;-143.30;100.00
14594;BME280;7383;52.354;9.756;2022-11-21T14:48:42;65156.72;;;-143.30;100.00
14594;BME280;7383;52.354;9.756;2022-11-21T14:51:10;65156.72;;;-143.30;100.00
14594;BME280;7383;52.354;9.756;2022-11-21T14:53:39;65156.72;;;-143.30;100.00
14594;BME280;7383;52.354;9.756;2022-11-21T14:56:08;65156.72;;;-143.30;100.00
14594;BME280;7383;52.354;9.756;2022-11-21T14:58:35;65156.72;;;-143.30;100.00
14594;BME280;7383;52.354;9.756;2022-11-21T15:01:04;65156.72;;;-143.30;100.00
14594;BME280;7383;52.354;9.756;2022-11-21T15:03:30;65156.72;;;-143.30;100.00
14594;BME280;7383;52.354;9.756;2022-11-21T15:06:00;65156.72;;;-143.30;100.00
14594;BME280;7383;52.354;9.756;2022-11-21T15:08:27;65156.72;;;-143.30;100.00
14594;BME280;7383;52.354;9.756;2022-11-21T15:10:55;65156.72;;;-143.30;100.00
14594;BME280;7383;52.354;9.756;2022-11-21T15:13:24;65156.72;;;-143.30;100.00
14594;BME280;7383;52.354;9.756;2022-11-21T15:15:57;65156.72;;;-143.30;100.00
14594;BME280;7383;52.354;9.756;2022-11-21T15:18:26;65156.72;;;-143.30;100.00
14594;BME280;7383;52.354;9.756;2022-11-21T15:20:54;65156.72;;;-143.30;100.00
14594;BME280;7383;52.354;9.756;2022-11-21T15:23:29;65156.72;;;-143.30;100.00
14594;BME280;7383;52.354;9.756;2022-11-21T15:25:56;65156.72;;;-143.30;100.00
14594;BME280;7383;52.354;9.756;2022-11-21T15:28:23;65156.72;;;-143.30;100.00
14594;BME280;7383;52.354;9.756;2022-11-21T15:31:14;65156.72;;;-143.30;100.00
14594;BME280;7383;52.354;9.756;2022-11-21T15:33:58;65156.72;;;-143.30;100.00
14594;BME280;7383;52.354;9.756;2022-11-21T15:36:25;65156.72;;;-143.30;100.00
14594;BME280;7383;52.354;9.756;2022-11-21T15:38:55;65156.72;;;-143.30;100.00
14594;BME280;7383;52.354;9.756;2022-11-21T15:41:28;65156.72;;;-143.30;100.00
14594;BME280;7383;52.354;9.756;2022-11-21T15:44:00;65156.72;;;-143.30;100.00